sensor_id;sensor_type;location;lat;lon;timestamp;temperature;humidity
2967;DHT22;1493;51.496;7.210;2023-09-19T00:00:07;17.30;99.90
2967;DHT22;1493;51.496;7.210;2023-09-19T00:02:38;17.40;99.90
2967;DHT22;1493;51.496;7.210;2023-09-19T00:05:05;17.30;99.90
2967;DHT22;1493;51.496;7.210;2023-09-19T00:07:33;17.30;99.90
2967;DHT22;1493;51.496;7.210;2023-09-19T00:10:02;17.20;99.90
2967;DHT22;1493;51.496;7.210;2023-09-19T00:12:30;17.20;99.90
2967;DHT22;1493;51.496;7.210;2023-09-19T00:14:58;17.20;99.90
2967;DHT22;1493;51.496;7.210;2023-09-19T00:17:26;17.20;99.90
2967;DHT22;1493;51.496;7.210;2023-09-19T00:19:56;17.20;99.90
2967;DHT22;1493;51.496;7.210;2023-09-19T00:22:22;17.10;99.90
2967;DHT22;1493;51.496;7.210;2023-09-19T00:24:51;17.00;99.90
2967;DHT22;1493;51.496;7.210;2023-09-19T00:27:18;17.10;99.90
2967;DHT22;1493;51.496;7.210;2023-09-19T00:29:45;17.00;99.90
2967;DHT22;1493;51.496;7.210;2023-09-19T00:32:13;17.00;99.90
2967;DHT22;1493;51.496;7.210;2023-09-19T00:34:40;17.00;99.90
2967;DHT22;1493;51.496;7.210;2023-09-19T00:37:08;17.10;99.90
2967;DHT22;1493;51.496;7.210;2023-09-19T00:39:36;17.00;99.90
2967;DHT22;1493;51.496;7.210;2023-09-19T00:42:04;16.90;99.90
2967;DHT22;1493;51.496;7.210;2023-09-19T00:44:31;16.90;99.90
2967;DHT22;1493;51.496;7.210;2023-09-19T00:47:00;16.70;99.90
2967;DHT22;1493;51.496;7.210;2023-09-19T00:49:29;16.90;99.90
2967;DHT22;1493;51.496;7.210;2023-09-19T00:51:56;16.70;99.90
2967;DHT22;1493;51.496;7.210;2023-09-19T00:54:23;16.70;99.90
2967;DHT22;1493;51.496;7.210;2023-09-19T00:56:51;16.70;99.90
2967;DHT22;1493;51.496;7.210;2023-09-19T00:59:20;16.70;99.90
2967;DHT22;1493;51.496;7.210;2023-09-19T01:01:47;16.60;99.90
2967;DHT22;1493;51.496;7.210;2023-09-19T01:04:18;16.60;99.90
2967;DHT22;1493;51.496;7.210;2023-09-19T01:06:47;16.60;99.90
2967;DHT22;1493;51.496;7.210;2023-09-19T01:09:18;16.50;99.90
2967;DHT22;1493;51.496;7.210;2023-09-19T01:11:48;16.50;99.90
2967;DHT22;1493;51.496;7.210;2023-09-19T01:14:25;16.50;99.90
2967;DHT22;1493;51.496;7.210;2023-09-19T01:17:03;16.60;99.90
2967;DHT22;1493;51.496;7.210;2023-09-19T01:22:53;16.60;99.90
2967;DHT22;1493;51.496;7.210;2023-09-19T01:28:30;16.40;99.90
2967;DHT22;1493;51.496;7.210;2023-09-19T01:31:04;16.40;99.90
2967;DHT22;1493;51.496;7.210;2023-09-19T01:33:59;16.40;99.90
2967;DHT22;1493;51.496;7.210;2023-09-19T01:36:31;16.40;99.90
2967;DHT22;1493;51.496;7.210;2023-09-19T01:39:02;16.40;99.90
2967;DHT22;1493;51.496;7.210;2023-09-19T01:44:39;16.30;99.90
2967;DHT22;1493;51.496;7.210;2023-09-19T01:47:16;16.30;99.90
2967;DHT22;1493;51.496;7.210;2023-09-19T01:49:50;16.30;99.90
2967;DHT22;1493;51.496;7.210;2023-09-19T01:52:22;16.40;99.90
2967;DHT22;1493;51.496;7.210;2023-09-19T01:54:55;16.30;99.90
2967;DHT22;1493;51.496;7.210;2023-09-19T01:57:28;16.30;99.90
2967;DHT22;1493;51.496;7.210;2023-09-19T02:00:00;16.20;99.90
2967;DHT22;1493;51.496;7.210;2023-09-19T02:02:34;16.20;99.90
2967;DHT22;1493;51.496;7.210;2023-09-19T02:05:02;16.20;99.90
2967;DHT22;1493;51.496;7.210;2023-09-19T02:07:29;16.20;99.90
2967;DHT22;1493;51.496;7.210;2023-09-19T02:09:57;16.20;99.90
2967;DHT22;1493;51.496;7.210;2023-09-19T02:12:24;16.20;99.90
2967;DHT22;1493;51.496;7.210;2023-09-19T02:14:51;16.20;99.90
2967;DHT22;1493;51.496;7.210;2023-09-19T02:17:18;16.10;99.90
2967;DHT22;1493;51.496;7.210;2023-09-19T02:19:46;16.10;99.90
2967;DHT22;1493;51.496;7.210;2023-09-19T02:22:13;16.10;99.90
2967;DHT22;1493;51.496;7.210;2023-09-19T02:24:41;16.20;99.90
2967;DHT22;1493;51.496;7.210;2023-09-19T02:27:08;16.20;99.90
2967;DHT22;1493;51.496;7.210;2023-09-19T02:29:38;16.10;99.90
2967;DHT22;1493;51.496;7.210;2023-09-19T02:32:05;16.00;99.90
2967;DHT22;1493;51.496;7.210;2023-09-19T02:34:31;16.10;99.90
2967;DHT22;1493;51.496;7.210;2023-09-19T02:37:03;16.00;99.90
2967;DHT22;1493;51.496;7.210;2023-09-19T02:39:30;16.00;99.90
2967;DHT22;1493;51.496;7.210;2023-09-19T02:41:57;16.10;99.90
2967;DHT22;1493;51.496;7.210;2023-09-19T02:44:24;16.10;99.90
2967;DHT22;1493;51.496;7.210;2023-09-19T02:46:51;16.20;99.90
2967;DHT22;1493;51.496;7.210;2023-09-19T02:49:18;16.10;99.90
2967;DHT22;1493;51.496;7.210;2023-09-19T02:51:45;16.10;99.90
2967;DHT22;1493;51.496;7.210;2023-09-19T02:54:14;16.10;99.90
2967;DHT22;1493;51.496;7.210;2023-09-19T02:56:41;16.00;99.90
2967;DHT22;1493;51.496;7.210;2023-09-19T02:59:08;16.10;99.90
2967;DHT22;1493;51.496;7.210;2023-09-19T03:01:36;16.10;99.90
2967;DHT22;1493;51.496;7.210;2023-09-19T03:04:04;16.00;99.90
2967;DHT22;1493;51.496;7.210;2023-09-19T03:06:32;16.00;99.90
2967;DHT22;1493;51.496;7.210;2023-09-19T03:08:59;16.00;99.90
2967;DHT22;1493;51.496;7.210;2023-09-19T03:11:28;16.00;99.90
2967;DHT22;1493;51.496;7.210;2023-09-19T03:13:55;16.00;99.90
2967;DHT22;1493;51.496;7.210;2023-09-19T03:16:22;16.00;99.90
2967;DHT22;1493;51.496;7.210;2023-09-19T03:18:48;16.00;99.90
2967;DHT22;1493;51.496;7.210;2023-09-19T03:21:15;16.00;99.90
2967;DHT22;1493;51.496;7.210;2023-09-19T03:23:43;16.00;99.90
2967;DHT22;1493;51.496;7.210;2023-09-19T03:26:11;15.90;99.90
2967;DHT22;1493;51.496;7.210;2023-09-19T03:28:41;15.90;99.90
2967;DHT22;1493;51.496;7.210;2023-09-19T03:31:09;15.90;99.90
2967;DHT22;1493;51.496;7.210;2023-09-19T03:33:36;15.90;99.90
2967;DHT22;1493;51.496;7.210;2023-09-19T03:36:03;16.00;99.90
2967;DHT22;1493;51.496;7.210;2023-09-19T03:38:31;15.90;76.70
2967;DHT22;1493;51.496;7.210;2023-09-19T03:40:59;16.00;82.60
2967;DHT22;1493;51.496;7.210;2023-09-19T03:43:25;16.00;71.40
2967;DHT22;1493;51.496;7.210;2023-09-19T03:45:54;16.00;90.90
2967;DHT22;1493;51.496;7.210;2023-09-19T03:48:20;15.90;35.20
2967;DHT22;1493;51.496;7.210;2023-09-19T03:50:48;15.90;83.20
2967;DHT22;1493;51.496;7.210;2023-09-19T03:53:15;15.90;66.20
2967;DHT22;1493;51.496;7.210;2023-09-19T03:55:44;15.90;49.80
2967;DHT22;1493;51.496;7.210;2023-09-19T03:58:11;15.80;51.90
2967;DHT22;1493;51.496;7.210;2023-09-19T04:00:38;15.70;28.10
2967;DHT22;1493;51.496;7.210;2023-09-19T04:03:06;15.80;93.30
2967;DHT22;1493;51.496;7.210;2023-09-19T04:05:33;15.80;59.20
2967;DHT22;1493;51.496;7.210;2023-09-19T04:08:00;15.90;99.90
2967;DHT22;1493;51.496;7.210;2023-09-19T04:10:27;15.80;92.50
2967;DHT22;1493;51.496;7.210;2023-09-19T04:12:54;15.70;57.10
2967;DHT22;1493;51.496;7.210;2023-09-19T04:15:21;15.70;38.80
2967;DHT22;1493;51.496;7.210;2023-09-19T04:17:49;15.70;55.10
2967;DHT22;1493;51.496;7.210;2023-09-19T04:20:17;15.70;43.10
2967;DHT22;1493;51.496;7.210;2023-09-19T04:22:45;15.70;65.20
2967;DHT22;1493;51.496;7.210;2023-09-19T04:25:12;15.80;50.80
2967;DHT22;1493;51.496;7.210;2023-09-19T04:27:39;15.80;41.10
2967;DHT22;1493;51.496;7.210;2023-09-19T04:30:08;15.80;16.60
2967;DHT22;1493;51.496;7.210;2023-09-19T04:32:37;15.80;31.60
2967;DHT22;1493;51.496;7.210;2023-09-19T04:35:08;15.80;34.90
2967;DHT22;1493;51.496;7.210;2023-09-19T04:37:38;15.80;40.70
2967;DHT22;1493;51.496;7.210;2023-09-19T04:40:07;15.80;54.80
2967;DHT22;1493;51.496;7.210;2023-09-19T04:42:39;15.80;53.90
2967;DHT22;1493;51.496;7.210;2023-09-19T04:45:06;15.80;55.20
2967;DHT22;1493;51.496;7.210;2023-09-19T04:47:35;15.80;56.10
2967;DHT22;1493;51.496;7.210;2023-09-19T04:50:07;15.70;59.20
2967;DHT22;1493;51.496;7.210;2023-09-19T04:52:39;15.70;72.80
2967;DHT22;1493;51.496;7.210;2023-09-19T04:55:08;15.70;76.50
2967;DHT22;1493;51.496;7.210;2023-09-19T04:57:36;15.70;96.10
2967;DHT22;1493;51.496;7.210;2023-09-19T05:00:02;15.80;57.10
2967;DHT22;1493;51.496;7.210;2023-09-19T05:02:32;15.70;53.40
2967;DHT22;1493;51.496;7.210;2023-09-19T05:05:00;15.80;61.30
2967;DHT22;1493;51.496;7.210;2023-09-19T05:07:27;15.80;71.70
2967;DHT22;1493;51.496;7.210;2023-09-19T05:09:55;15.80;62.50
2967;DHT22;1493;51.496;7.210;2023-09-19T05:12:22;15.80;91.70
2967;DHT22;1493;51.496;7.210;2023-09-19T05:14:49;15.80;56.40
2967;DHT22;1493;51.496;7.210;2023-09-19T05:17:15;15.70;69.10
2967;DHT22;1493;51.496;7.210;2023-09-19T05:19:43;15.70;95.80
2967;DHT22;1493;51.496;7.210;2023-09-19T05:22:11;15.80;99.90
2967;DHT22;1493;51.496;7.210;2023-09-19T05:24:38;15.70;99.90
2967;DHT22;1493;51.496;7.210;2023-09-19T05:27:06;15.70;99.90
2967;DHT22;1493;51.496;7.210;2023-09-19T05:29:33;15.70;98.90
2967;DHT22;1493;51.496;7.210;2023-09-19T05:32:00;15.70;98.70
2967;DHT22;1493;51.496;7.210;2023-09-19T05:34:27;15.80;99.90
2967;DHT22;1493;51.496;7.210;2023-09-19T05:36:55;15.80;99.90
2967;DHT22;1493;51.496;7.210;2023-09-19T05:39:22;15.80;98.60
2967;DHT22;1493;51.496;7.210;2023-09-19T05:41:49;15.80;98.10
2967;DHT22;1493;51.496;7.210;2023-09-19T05:44:17;15.70;91.30
2967;DHT22;1493;51.496;7.210;2023-09-19T05:46:44;15.70;99.90
2967;DHT22;1493;51.496;7.210;2023-09-19T05:49:11;15.80;99.90
2967;DHT22;1493;51.496;7.210;2023-09-19T05:51:38;15.80;91.10
2967;DHT22;1493;51.496;7.210;2023-09-19T05:54:05;15.80;75.20
2967;DHT22;1493;51.496;7.210;2023-09-19T05:56:32;15.80;98.40
2967;DHT22;1493;51.496;7.210;2023-09-19T05:58:59;15.80;98.90
2967;DHT22;1493;51.496;7.210;2023-09-19T06:01:27;15.90;99.90
2967;DHT22;1493;51.496;7.210;2023-09-19T06:03:54;15.90;58.80
2967;DHT22;1493;51.496;7.210;2023-09-19T06:06:21;15.90;84.50
2967;DHT22;1493;51.496;7.210;2023-09-19T06:08:49;16.00;91.40
2967;DHT22;1493;51.496;7.210;2023-09-19T06:11:16;15.90;44.60
2967;DHT22;1493;51.496;7.210;2023-09-19T06:13:45;15.90;50.30
2967;DHT22;1493;51.496;7.210;2023-09-19T06:16:13;16.00;74.20
2967;DHT22;1493;51.496;7.210;2023-09-19T06:18:41;16.00;46.00
2967;DHT22;1493;51.496;7.210;2023-09-19T06:21:08;16.10;26.00
2967;DHT22;1493;51.496;7.210;2023-09-19T06:23:35;16.10;48.70
2967;DHT22;1493;51.496;7.210;2023-09-19T06:26:02;16.00;14.90
2967;DHT22;1493;51.496;7.210;2023-09-19T06:28:32;16.00;31.20
2967;DHT22;1493;51.496;7.210;2023-09-19T06:30:59;16.00;24.80
2967;DHT22;1493;51.496;7.210;2023-09-19T06:33:26;16.10;52.20
2967;DHT22;1493;51.496;7.210;2023-09-19T06:35:54;16.10;36.10
2967;DHT22;1493;51.496;7.210;2023-09-19T06:38:24;16.10;42.40
2967;DHT22;1493;51.496;7.210;2023-09-19T06:40:51;16.10;24.00
2967;DHT22;1493;51.496;7.210;2023-09-19T06:43:19;16.20;20.00
2967;DHT22;1493;51.496;7.210;2023-09-19T06:45:46;16.30;99.90
2967;DHT22;1493;51.496;7.210;2023-09-19T06:48:13;16.30;57.00
2967;DHT22;1493;51.496;7.210;2023-09-19T06:50:41;16.30;99.90
2967;DHT22;1493;51.496;7.210;2023-09-19T06:53:11;16.40;43.10
2967;DHT22;1493;51.496;7.210;2023-09-19T06:55:37;16.50;18.50
2967;DHT22;1493;51.496;7.210;2023-09-19T06:58:04;16.40;1.00
2967;DHT22;1493;51.496;7.210;2023-09-19T07:00:31;16.40;6.30
2967;DHT22;1493;51.496;7.210;2023-09-19T07:03:03;16.50;24.70
2967;DHT22;1493;51.496;7.210;2023-09-19T07:05:34;16.60;2.10
2967;DHT22;1493;51.496;7.210;2023-09-19T07:08:03;16.50;1.00
2967;DHT22;1493;51.496;7.210;2023-09-19T07:10:33;16.60;20.60
2967;DHT22;1493;51.496;7.210;2023-09-19T07:13:01;16.70;26.70
2967;DHT22;1493;51.496;7.210;2023-09-19T07:15:29;16.60;24.20
2967;DHT22;1493;51.496;7.210;2023-09-19T07:17:56;16.60;14.30
2967;DHT22;1493;51.496;7.210;2023-09-19T07:20:24;16.50;1.00
2967;DHT22;1493;51.496;7.210;2023-09-19T07:22:52;16.50;1.00
2967;DHT22;1493;51.496;7.210;2023-09-19T07:25:20;16.50;2.70
2967;DHT22;1493;51.496;7.210;2023-09-19T07:27:48;16.60;14.00
2967;DHT22;1493;51.496;7.210;2023-09-19T07:30:16;16.70;22.70
2967;DHT22;1493;51.496;7.210;2023-09-19T07:32:43;16.80;4.50
2967;DHT22;1493;51.496;7.210;2023-09-19T07:35:10;16.90;14.20
2967;DHT22;1493;51.496;7.210;2023-09-19T07:37:37;16.90;55.80
2967;DHT22;1493;51.496;7.210;2023-09-19T07:40:05;16.90;6.80
2967;DHT22;1493;51.496;7.210;2023-09-19T07:42:33;16.90;1.00
2967;DHT22;1493;51.496;7.210;2023-09-19T07:45:02;16.90;1.00
2967;DHT22;1493;51.496;7.210;2023-09-19T07:47:29;16.90;1.00
2967;DHT22;1493;51.496;7.210;2023-09-19T07:49:58;17.00;1.00
2967;DHT22;1493;51.496;7.210;2023-09-19T07:52:25;16.90;1.30
2967;DHT22;1493;51.496;7.210;2023-09-19T07:54:53;16.90;3.00
2967;DHT22;1493;51.496;7.210;2023-09-19T07:57:20;17.00;17.70
2967;DHT22;1493;51.496;7.210;2023-09-19T07:59:46;17.00;1.00
2967;DHT22;1493;51.496;7.210;2023-09-19T08:02:14;17.10;3.70
2967;DHT22;1493;51.496;7.210;2023-09-19T08:04:42;17.20;24.20
2967;DHT22;1493;51.496;7.210;2023-09-19T08:07:09;17.10;1.00
2967;DHT22;1493;51.496;7.210;2023-09-19T08:09:36;17.20;1.00
2967;DHT22;1493;51.496;7.210;2023-09-19T08:12:04;17.20;1.00
2967;DHT22;1493;51.496;7.210;2023-09-19T08:14:33;17.20;1.00
2967;DHT22;1493;51.496;7.210;2023-09-19T08:17:00;17.30;1.00
2967;DHT22;1493;51.496;7.210;2023-09-19T08:19:28;17.30;1.00
2967;DHT22;1493;51.496;7.210;2023-09-19T08:21:57;17.30;1.00
2967;DHT22;1493;51.496;7.210;2023-09-19T08:24:24;17.40;8.20
2967;DHT22;1493;51.496;7.210;2023-09-19T08:26:53;17.40;1.00
2967;DHT22;1493;51.496;7.210;2023-09-19T08:29:21;17.40;1.00
2967;DHT22;1493;51.496;7.210;2023-09-19T08:31:53;17.40;2.90
2967;DHT22;1493;51.496;7.210;2023-09-19T08:34:20;17.40;28.90
2967;DHT22;1493;51.496;7.210;2023-09-19T08:36:50;17.50;1.00
2967;DHT22;1493;51.496;7.210;2023-09-19T08:39:18;17.40;8.40
2967;DHT22;1493;51.496;7.210;2023-09-19T08:41:45;17.60;1.00
2967;DHT22;1493;51.496;7.210;2023-09-19T08:44:12;17.70;1.00
2967;DHT22;1493;51.496;7.210;2023-09-19T08:46:41;17.70;1.00
2967;DHT22;1493;51.496;7.210;2023-09-19T08:49:13;17.70;1.00
2967;DHT22;1493;51.496;7.210;2023-09-19T08:51:45;17.70;1.00
2967;DHT22;1493;51.496;7.210;2023-09-19T08:54:21;17.80;1.00
2967;DHT22;1493;51.496;7.210;2023-09-19T08:56:50;17.90;1.00
2967;DHT22;1493;51.496;7.210;2023-09-19T08:59:22;18.00;1.00
2967;DHT22;1493;51.496;7.210;2023-09-19T09:01:51;17.90;1.00
2967;DHT22;1493;51.496;7.210;2023-09-19T09:04:19;18.10;1.00
2967;DHT22;1493;51.496;7.210;2023-09-19T09:06:47;18.20;1.00
2967;DHT22;1493;51.496;7.210;2023-09-19T09:09:15;18.10;1.00
2967;DHT22;1493;51.496;7.210;2023-09-19T09:11:42;18.10;1.00
2967;DHT22;1493;51.496;7.210;2023-09-19T09:14:09;18.10;1.00
2967;DHT22;1493;51.496;7.210;2023-09-19T09:16:36;18.20;1.00
2967;DHT22;1493;51.496;7.210;2023-09-19T09:19:04;18.30;1.00
2967;DHT22;1493;51.496;7.210;2023-09-19T09:21:31;18.30;1.00
2967;DHT22;1493;51.496;7.210;2023-09-19T09:24:30;18.40;1.00
2967;DHT22;1493;51.496;7.210;2023-09-19T09:26:59;18.50;1.00
2967;DHT22;1493;51.496;7.210;2023-09-19T09:29:45;18.60;99.90
2967;DHT22;1493;51.496;7.210;2023-09-19T09:32:22;18.70;1.00
2967;DHT22;1493;51.496;7.210;2023-09-19T09:34:52;18.70;99.90
2967;DHT22;1493;51.496;7.210;2023-09-19T09:37:20;18.70;99.90
2967;DHT22;1493;51.496;7.210;2023-09-19T09:39:53;18.90;1.00
2967;DHT22;1493;51.496;7.210;2023-09-19T09:42:32;18.90;99.90
2967;DHT22;1493;51.496;7.210;2023-09-19T09:45:18;19.00;99.90
2967;DHT22;1493;51.496;7.210;2023-09-19T09:47:54;18.90;99.90
2967;DHT22;1493;51.496;7.210;2023-09-19T09:50:28;19.00;99.90
2967;DHT22;1493;51.496;7.210;2023-09-19T09:53:03;18.90;1.00
2967;DHT22;1493;51.496;7.210;2023-09-19T09:55:57;19.10;1.00
2967;DHT22;1493;51.496;7.210;2023-09-19T09:58:25;19.00;99.90
2967;DHT22;1493;51.496;7.210;2023-09-19T10:00:55;19.20;99.90
2967;DHT22;1493;51.496;7.210;2023-09-19T10:03:31;19.30;99.90
2967;DHT22;1493;51.496;7.210;2023-09-19T10:06:00;19.50;99.90
2967;DHT22;1493;51.496;7.210;2023-09-19T10:08:28;19.70;1.00
2967;DHT22;1493;51.496;7.210;2023-09-19T10:10:58;20.00;99.90
2967;DHT22;1493;51.496;7.210;2023-09-19T10:13:31;19.90;1.00
2967;DHT22;1493;51.496;7.210;2023-09-19T10:16:06;20.00;1.00
2967;DHT22;1493;51.496;7.210;2023-09-19T10:18:36;19.80;1.00
2967;DHT22;1493;51.496;7.210;2023-09-19T10:21:04;19.90;99.90
2967;DHT22;1493;51.496;7.210;2023-09-19T10:23:34;20.20;78.10
2967;DHT22;1493;51.496;7.210;2023-09-19T10:26:05;20.80;1.00
2967;DHT22;1493;51.496;7.210;2023-09-19T10:28:35;21.30;99.90
2967;DHT22;1493;51.496;7.210;2023-09-19T10:31:04;21.70;1.00
2967;DHT22;1493;51.496;7.210;2023-09-19T10:33:36;21.80;99.90
2967;DHT22;1493;51.496;7.210;2023-09-19T10:36:05;21.70;99.90
2967;DHT22;1493;51.496;7.210;2023-09-19T10:38:33;21.90;99.90
2967;DHT22;1493;51.496;7.210;2023-09-19T10:41:03;22.00;1.00
2967;DHT22;1493;51.496;7.210;2023-09-19T10:43:32;22.20;1.00
2967;DHT22;1493;51.496;7.210;2023-09-19T10:46:02;22.20;1.00
2967;DHT22;1493;51.496;7.210;2023-09-19T10:48:31;22.30;99.90
2967;DHT22;1493;51.496;7.210;2023-09-19T10:51:03;22.10;99.90
2967;DHT22;1493;51.496;7.210;2023-09-19T10:53:41;22.10;99.90
2967;DHT22;1493;51.496;7.210;2023-09-19T10:56:11;22.50;99.90
2967;DHT22;1493;51.496;7.210;2023-09-19T10:58:44;22.50;28.50
2967;DHT22;1493;51.496;7.210;2023-09-19T11:01:11;22.70;1.00
2967;DHT22;1493;51.496;7.210;2023-09-19T11:03:39;22.80;1.00
2967;DHT22;1493;51.496;7.210;2023-09-19T11:06:11;22.90;1.00
2967;DHT22;1493;51.496;7.210;2023-09-19T11:09:02;22.60;1.00
2967;DHT22;1493;51.496;7.210;2023-09-19T11:11:50;22.70;1.00
2967;DHT22;1493;51.496;7.210;2023-09-19T11:14:41;22.90;1.00
2967;DHT22;1493;51.496;7.210;2023-09-19T11:17:42;23.20;1.00
2967;DHT22;1493;51.496;7.210;2023-09-19T11:20:23;23.30;1.00
2967;DHT22;1493;51.496;7.210;2023-09-19T11:23:18;23.60;1.00
2967;DHT22;1493;51.496;7.210;2023-09-19T11:25:51;23.90;1.00
2967;DHT22;1493;51.496;7.210;2023-09-19T11:28:34;24.00;1.00
2967;DHT22;1493;51.496;7.210;2023-09-19T11:34:41;24.10;1.00
2967;DHT22;1493;51.496;7.210;2023-09-19T11:40:37;24.10;1.00
2967;DHT22;1493;51.496;7.210;2023-09-19T11:43:30;24.00;1.00
2967;DHT22;1493;51.496;7.210;2023-09-19T11:46:07;24.10;1.00
2967;DHT22;1493;51.496;7.210;2023-09-19T11:48:41;23.90;1.00
2967;DHT22;1493;51.496;7.210;2023-09-19T11:51:13;23.60;1.00
2967;DHT22;1493;51.496;7.210;2023-09-19T11:53:42;23.80;1.00
2967;DHT22;1493;51.496;7.210;2023-09-19T11:56:11;23.90;1.00
2967;DHT22;1493;51.496;7.210;2023-09-19T11:58:41;23.80;1.00
2967;DHT22;1493;51.496;7.210;2023-09-19T12:01:13;23.60;1.00
2967;DHT22;1493;51.496;7.210;2023-09-19T12:03:43;23.20;1.00
2967;DHT22;1493;51.496;7.210;2023-09-19T12:06:14;23.00;1.00
2967;DHT22;1493;51.496;7.210;2023-09-19T12:08:41;23.50;1.00
2967;DHT22;1493;51.496;7.210;2023-09-19T12:11:15;23.90;1.00
2967;DHT22;1493;51.496;7.210;2023-09-19T12:13:44;24.10;1.00
2967;DHT22;1493;51.496;7.210;2023-09-19T12:16:14;24.30;1.00
2967;DHT22;1493;51.496;7.210;2023-09-19T12:18:43;24.10;1.00
2967;DHT22;1493;51.496;7.210;2023-09-19T12:21:28;23.90;1.00
2967;DHT22;1493;51.496;7.210;2023-09-19T12:24:07;24.10;1.00
2967;DHT22;1493;51.496;7.210;2023-09-19T12:26:43;24.40;1.00
2967;DHT22;1493;51.496;7.210;2023-09-19T12:29:15;24.60;1.00
2967;DHT22;1493;51.496;7.210;2023-09-19T12:31:54;24.50;1.00
2967;DHT22;1493;51.496;7.210;2023-09-19T12:34:24;24.90;17.80
2967;DHT22;1493;51.496;7.210;2023-09-19T12:37:06;24.80;98.80
2967;DHT22;1493;51.496;7.210;2023-09-19T12:39:38;25.40;95.10
2967;DHT22;1493;51.496;7.210;2023-09-19T12:42:07;25.70;95.20
2967;DHT22;1493;51.496;7.210;2023-09-19T12:44:36;25.70;91.30
2967;DHT22;1493;51.496;7.210;2023-09-19T12:47:11;25.70;90.00
2967;DHT22;1493;51.496;7.210;2023-09-19T12:52:41;26.20;87.30
2967;DHT22;1493;51.496;7.210;2023-09-19T12:55:18;26.40;83.10
2967;DHT22;1493;51.496;7.210;2023-09-19T12:57:58;26.60;89.90
2967;DHT22;1493;51.496;7.210;2023-09-19T13:00:35;26.70;83.40
2967;DHT22;1493;51.496;7.210;2023-09-19T13:03:17;26.80;82.80
2967;DHT22;1493;51.496;7.210;2023-09-19T13:05:52;26.50;85.80
2967;DHT22;1493;51.496;7.210;2023-09-19T13:08:23;25.90;78.00
2967;DHT22;1493;51.496;7.210;2023-09-19T13:11:09;25.80;82.00
2967;DHT22;1493;51.496;7.210;2023-09-19T13:13:41;25.70;80.20
2967;DHT22;1493;51.496;7.210;2023-09-19T13:16:10;25.80;84.20
2967;DHT22;1493;51.496;7.210;2023-09-19T13:18:45;26.00;85.80
2967;DHT22;1493;51.496;7.210;2023-09-19T13:21:13;26.00;83.90
2967;DHT22;1493;51.496;7.210;2023-09-19T13:23:49;25.80;80.40
2967;DHT22;1493;51.496;7.210;2023-09-19T13:26:15;25.40;81.30
2967;DHT22;1493;51.496;7.210;2023-09-19T13:28:42;25.50;83.70
2967;DHT22;1493;51.496;7.210;2023-09-19T13:31:09;25.30;81.80
2967;DHT22;1493;51.496;7.210;2023-09-19T13:33:44;25.60;84.40
2967;DHT22;1493;51.496;7.210;2023-09-19T13:36:11;25.50;81.20
2967;DHT22;1493;51.496;7.210;2023-09-19T13:38:39;25.90;85.50
2967;DHT22;1493;51.496;7.210;2023-09-19T13:41:06;25.70;79.20
2967;DHT22;1493;51.496;7.210;2023-09-19T13:43:32;25.60;80.70
2967;DHT22;1493;51.496;7.210;2023-09-19T13:45:59;25.60;82.80
2967;DHT22;1493;51.496;7.210;2023-09-19T13:48:26;25.60;83.10
2967;DHT22;1493;51.496;7.210;2023-09-19T13:50:56;25.30;79.90
2967;DHT22;1493;51.496;7.210;2023-09-19T13:53:23;25.00;81.10
2967;DHT22;1493;51.496;7.210;2023-09-19T13:55:51;24.70;84.20
2967;DHT22;1493;51.496;7.210;2023-09-19T13:58:18;24.20;82.50
2967;DHT22;1493;51.496;7.210;2023-09-19T14:00:46;23.80;82.30
2967;DHT22;1493;51.496;7.210;2023-09-19T14:03:13;23.50;86.40
2967;DHT22;1493;51.496;7.210;2023-09-19T14:05:40;23.00;87.40
2967;DHT22;1493;51.496;7.210;2023-09-19T14:08:09;22.40;89.60
2967;DHT22;1493;51.496;7.210;2023-09-19T14:10:38;22.20;92.90
2967;DHT22;1493;51.496;7.210;2023-09-19T14:13:05;22.00;99.90
2967;DHT22;1493;51.496;7.210;2023-09-19T14:15:31;21.80;1.00
2967;DHT22;1493;51.496;7.210;2023-09-19T14:18:00;21.80;1.00
2967;DHT22;1493;51.496;7.210;2023-09-19T14:20:27;21.70;1.00
2967;DHT22;1493;51.496;7.210;2023-09-19T14:22:54;21.70;1.00
2967;DHT22;1493;51.496;7.210;2023-09-19T14:25:23;21.60;1.00
2967;DHT22;1493;51.496;7.210;2023-09-19T14:27:50;21.50;1.00
2967;DHT22;1493;51.496;7.210;2023-09-19T14:30:17;21.50;1.00
2967;DHT22;1493;51.496;7.210;2023-09-19T14:32:44;21.40;1.00
2967;DHT22;1493;51.496;7.210;2023-09-19T14:35:10;21.30;1.00
2967;DHT22;1493;51.496;7.210;2023-09-19T14:37:40;21.20;1.00
2967;DHT22;1493;51.496;7.210;2023-09-19T14:40:08;21.00;1.00
2967;DHT22;1493;51.496;7.210;2023-09-19T14:42:39;21.10;1.00
2967;DHT22;1493;51.496;7.210;2023-09-19T14:45:06;21.00;1.00
2967;DHT22;1493;51.496;7.210;2023-09-19T14:47:34;21.00;99.90
2967;DHT22;1493;51.496;7.210;2023-09-19T14:50:02;21.00;1.00
2967;DHT22;1493;51.496;7.210;2023-09-19T14:52:31;20.90;1.00
2967;DHT22;1493;51.496;7.210;2023-09-19T14:54:59;21.00;1.00
2967;DHT22;1493;51.496;7.210;2023-09-19T14:57:26;20.90;1.00
2967;DHT22;1493;51.496;7.210;2023-09-19T14:59:54;20.80;1.00
2967;DHT22;1493;51.496;7.210;2023-09-19T15:02:21;20.60;33.30
2967;DHT22;1493;51.496;7.210;2023-09-19T15:04:47;20.60;99.90
2967;DHT22;1493;51.496;7.210;2023-09-19T15:07:14;20.70;1.00
2967;DHT22;1493;51.496;7.210;2023-09-19T15:09:41;20.60;76.30
2967;DHT22;1493;51.496;7.210;2023-09-19T15:12:09;20.60;1.00
2967;DHT22;1493;51.496;7.210;2023-09-19T15:14:36;20.60;99.90
2967;DHT22;1493;51.496;7.210;2023-09-19T15:17:05;20.50;99.90
2967;DHT22;1493;51.496;7.210;2023-09-19T15:19:31;20.50;99.90
2967;DHT22;1493;51.496;7.210;2023-09-19T15:21:58;20.50;99.90
2967;DHT22;1493;51.496;7.210;2023-09-19T15:24:25;20.40;99.90
2967;DHT22;1493;51.496;7.210;2023-09-19T15:26:53;20.30;99.90
2967;DHT22;1493;51.496;7.210;2023-09-19T15:29:21;20.40;99.90
2967;DHT22;1493;51.496;7.210;2023-09-19T15:31:48;20.30;99.90
2967;DHT22;1493;51.496;7.210;2023-09-19T15:34:16;20.20;99.90
2967;DHT22;1493;51.496;7.210;2023-09-19T15:36:43;20.20;1.00
2967;DHT22;1493;51.496;7.210;2023-09-19T15:39:11;20.30;99.10
2967;DHT22;1493;51.496;7.210;2023-09-19T15:41:44;20.20;93.20
2967;DHT22;1493;51.496;7.210;2023-09-19T15:44:12;20.20;1.00
2967;DHT22;1493;51.496;7.210;2023-09-19T15:46:39;20.20;99.90
2967;DHT22;1493;51.496;7.210;2023-09-19T15:49:06;20.20;1.00
2967;DHT22;1493;51.496;7.210;2023-09-19T15:51:35;20.20;99.90
2967;DHT22;1493;51.496;7.210;2023-09-19T15:54:07;20.30;1.00
2967;DHT22;1493;51.496;7.210;2023-09-19T15:56:34;20.40;1.00
2967;DHT22;1493;51.496;7.210;2023-09-19T15:59:01;20.50;99.90
2967;DHT22;1493;51.496;7.210;2023-09-19T16:01:28;20.50;99.90
2967;DHT22;1493;51.496;7.210;2023-09-19T16:03:55;20.50;99.90
2967;DHT22;1493;51.496;7.210;2023-09-19T16:06:23;20.60;99.90
2967;DHT22;1493;51.496;7.210;2023-09-19T16:08:53;20.60;99.90
2967;DHT22;1493;51.496;7.210;2023-09-19T16:11:21;20.50;99.90
2967;DHT22;1493;51.496;7.210;2023-09-19T16:13:49;20.60;99.90
2967;DHT22;1493;51.496;7.210;2023-09-19T16:16:16;20.60;99.90
2967;DHT22;1493;51.496;7.210;2023-09-19T16:18:45;20.60;91.50
2967;DHT22;1493;51.496;7.210;2023-09-19T16:21:14;20.50;99.90
2967;DHT22;1493;51.496;7.210;2023-09-19T16:23:44;20.50;1.00
2967;DHT22;1493;51.496;7.210;2023-09-19T16:26:13;20.50;1.00
2967;DHT22;1493;51.496;7.210;2023-09-19T16:28:41;20.30;99.90
2967;DHT22;1493;51.496;7.210;2023-09-19T16:31:08;20.30;1.00
2967;DHT22;1493;51.496;7.210;2023-09-19T16:33:37;20.10;1.00
2967;DHT22;1493;51.496;7.210;2023-09-19T16:36:07;20.10;99.90
2967;DHT22;1493;51.496;7.210;2023-09-19T16:38:36;20.00;99.90
2967;DHT22;1493;51.496;7.210;2023-09-19T16:41:03;20.00;1.00